Time;durP1;ratioP1;P1;durP2;ratioP2;P2;SDS_P1;SDS_P2;PMS_P1;PMS_P2;Temp;Humidity;BMP_temperature;BMP_pressure;BME280_temperature;BME280_humidity;BME280_pressure;Samples;Min_cycle;Max_cycle;Signal;HPM_P1;HPM_P2
2022/08/17 00:00:34;;;;;;;5.43;4.10;;;25.30;58.20;;;;;;5011539;28;20603;-78
2022/08/17 00:03:02;;;;;;;5.30;4.33;;;25.30;58.40;;;;;;5011526;28;20597;-77
2022/08/17 00:05:32;;;;;;;4.37;3.80;;;25.30;58.50;;;;;;5011022;28;20692;-77
2022/08/17 00:07:58;;;;;;;5.70;4.53;;;25.30;58.80;;;;;;5011575;28;21128;-78
2022/08/17 00:10:24;;;;;;;4.20;3.80;;;25.30;59.00;;;;;;5011774;28;20569;-77
2022/08/17 00:12:50;;;;;;;4.53;4.13;;;25.30;59.20;;;;;;5015765;28;20664;-77
2022/08/17 00:15:19;;;;;;;5.80;4.60;;;25.30;59.40;;;;;;5011161;28;21616;-77
2022/08/17 00:17:48;;;;;;;4.60;4.03;;;25.30;59.60;;;;;;4993939;28;20572;-77
2022/08/17 00:20:14;;;;;;;5.57;4.13;;;25.30;59.70;;;;;;5010454;28;20582;-77
2022/08/17 00:22:40;;;;;;;6.80;4.27;;;25.40;59.90;;;;;;4993880;28;20913;-77
2022/08/17 00:25:13;;;;;;;8.47;4.53;;;25.40;60.10;;;;;;5011153;28;20600;-77
2022/08/17 00:27:39;;;;;;;4.47;3.80;;;25.40;60.40;;;;;;4994717;28;20189;-78
2022/08/17 00:30:07;;;;;;;5.17;4.33;;;25.40;60.40;;;;;;4997484;28;20589;-77
2022/08/17 00:32:42;;;;;;;5.23;3.97;;;25.40;60.50;;;;;;4997502;28;20572;-77
2022/08/17 00:35:10;;;;;;;4.23;3.50;;;25.50;60.90;;;;;;5014440;28;21235;-77
2022/08/17 00:37:36;;;;;;;5.43;4.07;;;25.50;60.60;;;;;;5020482;28;20629;-77
2022/08/17 00:40:02;;;;;;;4.20;3.80;;;25.50;60.60;;;;;;5006521;28;20607;-77
2022/08/17 00:42:28;;;;;;;4.40;3.47;;;25.50;60.60;;;;;;5023162;28;20544;-78
2022/08/17 00:44:54;;;;;;;6.87;3.87;;;25.60;60.70;;;;;;5023128;28;20657;-78
2022/08/17 00:47:20;;;;;;;3.80;3.40;;;25.60;60.70;;;;;;5020626;28;20620;-77
2022/08/17 00:49:45;;;;;;;3.73;3.00;;;25.60;60.70;;;;;;5001597;28;20178;-78
2022/08/17 00:52:15;;;;;;;3.70;2.80;;;25.70;60.70;;;;;;5014689;28;20178;-78
2022/08/17 00:54:45;;;;;;;5.93;3.20;;;25.70;60.70;;;;;;5013965;28;20208;-78
2022/08/17 00:57:25;;;;;;;6.50;3.07;;;25.70;60.80;;;;;;5014734;28;20934;-77
2022/08/17 00:59:58;;;;;;;4.20;3.40;;;25.70;60.90;;;;;;5014478;28;20573;-78
2022/08/17 01:02:24;;;;;;;4.73;3.40;;;25.60;61.00;;;;;;5014409;28;20565;-78
2022/08/17 01:04:52;;;;;;;3.30;3.07;;;25.60;61.00;;;;;;5013886;28;20695;-77
2022/08/17 01:07:22;;;;;;;4.50;2.60;;;25.60;61.10;;;;;;4996853;28;20221;-77
2022/08/17 01:09:48;;;;;;;4.33;3.23;;;25.60;61.30;;;;;;5014213;28;20569;-77
2022/08/17 01:12:14;;;;;;;3.57;2.60;;;25.60;61.30;;;;;;5014066;28;21139;-77
2022/08/17 01:14:40;;;;;;;3.37;2.73;;;25.50;61.50;;;;;;5013658;28;20640;-77
2022/08/17 01:17:07;;;;;;;5.40;3.83;;;25.50;61.90;;;;;;5014649;28;20615;-77
2022/08/17 01:19:37;;;;;;;2.53;2.33;;;25.40;61.90;;;;;;4997306;28;20570;-77
2022/08/17 01:22:15;;;;;;;4.27;2.93;;;25.40;61.90;;;;;;5014976;28;20635;-77
2022/08/17 01:24:44;;;;;;;2.90;2.70;;;25.40;62.40;;;;;;5024586;28;21182;-77
2022/08/17 01:27:12;;;;;;;2.97;2.37;;;25.30;62.60;;;;;;5006572;28;20585;-76
2022/08/17 01:29:42;;;;;;;3.73;2.77;;;25.30;62.70;;;;;;5021614;28;20616;-77
2022/08/17 01:32:09;;;;;;;3.83;3.00;;;25.20;62.90;;;;;;5005370;28;20569;-77
2022/08/17 01:34:34;;;;;;;4.70;2.47;;;25.20;63.10;;;;;;5026734;28;20679;-78
2022/08/17 01:37:01;;;;;;;3.13;2.83;;;25.10;63.60;;;;;;4987413;28;21187;-78
2022/08/17 01:39:43;;;;;;;2.43;2.00;;;25.10;63.60;;;;;;5015840;28;20943;-78
2022/08/17 01:42:37;;;;;;;2.80;2.40;;;25.10;63.80;;;;;;5013945;28;20585;-78
2022/08/17 01:45:24;;;;;;;4.93;3.33;;;25.00;63.70;;;;;;4995670;28;20652;-77
2022/08/17 01:47:51;;;;;;;4.40;3.10;;;25.00;64.00;;;;;;5013782;28;20573;-77
2022/08/17 01:50:22;;;;;;;2.83;2.37;;;25.00;64.00;;;;;;4979654;28;20584;-77
2022/08/17 01:52:54;;;;;;;2.90;2.33;;;25.00;64.70;;;;;;4995906;28;21128;-77
2022/08/17 01:55:25;;;;;;;2.73;2.40;;;25.00;64.40;;;;;;4995066;28;20647;-77
2022/08/17 01:57:51;;;;;;;4.77;2.57;;;25.00;64.70;;;;;;5013261;28;20576;-77
2022/08/17 02:00:17;;;;;;;4.20;2.90;;;25.00;64.90;;;;;;5013504;28;20578;-77
2022/08/17 02:02:44;;;;;;;3.33;3.03;;;24.90;65.60;;;;;;5017691;28;20577;-77
2022/08/17 02:05:11;;;;;;;3.23;2.60;;;24.90;65.50;;;;;;5013433;28;20281;-77
2022/08/17 02:07:38;;;;;;;3.27;2.10;;;24.90;66.00;;;;;;5012978;28;20673;-77
2022/08/17 02:10:07;;;;;;;6.93;2.20;;;24.90;66.70;;;;;;5012857;28;20585;-77
2022/08/17 02:12:34;;;;;;;3.77;2.73;;;24.90;65.90;;;;;;5013057;28;20588;-78
2022/08/17 02:15:00;;;;;;;3.33;2.70;;;24.90;66.40;;;;;;5019349;28;20637;-78
2022/08/17 02:17:26;;;;;;;3.63;2.53;;;24.90;66.40;;;;;;5012753;28;20657;-77
2022/08/17 02:19:52;;;;;;;3.20;2.50;;;24.80;66.60;;;;;;5012335;28;20660;-78
2022/08/17 02:22:18;;;;;;;3.80;2.47;;;24.80;66.80;;;;;;5012610;28;20170;-78
2022/08/17 02:24:44;;;;;;;3.23;2.80;;;24.80;66.80;;;;;;4994679;28;20190;-77
2022/08/17 02:27:10;;;;;;;2.37;2.17;;;24.70;66.80;;;;;;5012657;28;20922;-78
2022/08/17 02:29:36;;;;;;;2.93;2.27;;;24.70;67.20;;;;;;5012228;28;20569;-78
2022/08/17 02:32:03;;;;;;;2.90;2.53;;;24.70;67.30;;;;;;5012573;28;20565;-78
2022/08/17 02:34:31;;;;;;;4.23;2.93;;;24.70;67.40;;;;;;4994739;28;20629;-78
2022/08/17 02:36:56;;;;;;;3.07;1.90;;;24.60;67.60;;;;;;4996572;28;20608;-78
2022/08/17 02:39:22;;;;;;;3.10;2.50;;;24.60;67.80;;;;;;5015785;28;20577;-77
2022/08/17 02:41:48;;;;;;;4.37;2.03;;;24.60;67.90;;;;;;5012316;28;20175;-78
2022/08/17 02:44:14;;;;;;;2.97;2.23;;;24.60;68.20;;;;;;5011149;28;20174;-78
2022/08/17 02:46:40;;;;;;;2.43;2.17;;;24.50;68.40;;;;;;5010438;28;20196;-78
2022/08/17 02:49:05;;;;;;;2.40;1.87;;;24.50;68.60;;;;;;4994624;28;21149;-78
2022/08/17 02:51:31;;;;;;;3.03;2.60;;;24.50;68.90;;;;;;4994165;28;20476;-77
2022/08/17 02:53:57;;;;;;;4.20;2.97;;;24.40;69.10;;;;;;5012063;28;20527;-77
2022/08/17 02:56:23;;;;;;;2.27;2.00;;;24.40;69.30;;;;;;5011390;28;20205;-77
2022/08/17 02:58:48;;;;;;;6.23;2.23;;;24.40;69.60;;;;;;4994778;28;20174;-77
2022/08/17 03:01:14;;;;;;;2.80;2.10;;;24.40;69.80;;;;;;5012138;28;20528;-78
2022/08/17 03:03:40;;;;;;;3.50;2.40;;;24.40;69.90;;;;;;4978069;28;20165;-77
2022/08/17 03:06:07;;;;;;;3.40;2.40;;;24.40;70.20;;;;;;4994118;28;20605;-77
2022/08/17 03:08:34;;;;;;;3.97;2.50;;;24.30;70.30;;;;;;5011882;28;20940;-77
2022/08/17 03:10:59;;;;;;;2.80;2.47;;;24.30;70.60;;;;;;5010681;28;20689;-78
2022/08/17 03:13:26;;;;;;;3.60;2.37;;;24.30;70.70;;;;;;5015227;28;20605;-78
2022/08/17 03:15:52;;;;;;;2.60;2.03;;;24.30;71.00;;;;;;4995614;28;20697;-78
2022/08/17 03:18:20;;;;;;;2.67;2.20;;;24.20;71.00;;;;;;5011840;28;20605;-78
2022/08/17 03:20:46;;;;;;;3.83;2.50;;;24.20;71.30;;;;;;5012040;28;20623;-77
2022/08/17 03:23:11;;;;;;;3.40;2.80;;;24.20;71.60;;;;;;5011936;28;20677;-78
2022/08/17 03:25:42;;;;;;;2.90;2.60;;;24.20;71.60;;;;;;5011599;28;20695;-77
2022/08/17 03:28:10;;;;;;;3.00;2.50;;;24.20;71.80;;;;;;5012185;28;20227;-77
2022/08/17 03:30:37;;;;;;;3.00;2.70;;;24.20;71.90;;;;;;5012747;28;20615;-77
2022/08/17 03:33:06;;;;;;;3.23;2.67;;;24.20;71.90;;;;;;4994225;28;20573;-78
2022/08/17 03:35:35;;;;;;;3.77;2.77;;;24.20;72.10;;;;;;5011358;28;20625;-78
2022/08/17 03:38:01;;;;;;;3.00;2.70;;;24.20;72.30;;;;;;5011785;28;20565;-78
2022/08/17 03:40:27;;;;;;;3.53;2.27;;;24.20;72.20;;;;;;4994196;28;21044;-77
2022/08/17 03:42:53;;;;;;;6.60;3.13;;;24.20;72.20;;;;;;4994164;28;20558;-78
2022/08/17 03:56:41;;;;;;;3.10;2.60;;;24.20;72.40;;;;;;4993858;28;20962;-77
2022/08/17 03:56:43;;;;;;;4.00;2.50;;;24.10;72.50;;;;;;5009710;28;21198;-78
2022/08/17 03:59:16;;;;;;;6.50;2.30;;;24.20;72.40;;;;;;5011679;28;21327;-78
2022/08/17 04:01:46;;;;;;;4.20;2.60;;;24.20;72.70;;;;;;5011381;28;20576;-78
2022/08/17 04:04:12;;;;;;;2.73;2.33;;;24.20;72.60;;;;;;5014740;28;20667;-77
2022/08/17 04:06:39;;;;;;;2.60;2.17;;;24.20;72.50;;;;;;5015057;28;20695;-78
2022/08/17 04:09:06;;;;;;;5.50;3.50;;;24.20;72.70;;;;;;5015188;28;20565;-78
2022/08/17 04:11:33;;;;;;;3.47;2.23;;;24.20;72.50;;;;;;5015077;28;20577;-78
2022/08/17 04:14:00;;;;;;;4.40;2.87;;;24.20;72.50;;;;;;5014861;28;20585;-78
2022/08/17 04:16:27;;;;;;;2.30;2.10;;;24.20;72.70;;;;;;5014329;28;21222;-78
2022/08/17 04:18:52;;;;;;;2.93;2.63;;;24.20;72.60;;;;;;5014950;28;20604;-78
2022/08/17 04:21:19;;;;;;;3.97;2.37;;;24.20;72.50;;;;;;5015107;28;20601;-78
2022/08/17 04:23:45;;;;;;;4.40;2.77;;;24.20;72.60;;;;;;5015129;28;20606;-78
2022/08/17 04:26:13;;;;;;;2.83;2.13;;;24.20;72.60;;;;;;5018197;28;20593;-78
2022/08/17 04:28:40;;;;;;;2.10;1.70;;;24.20;72.50;;;;;;4997853;28;21254;-78
2022/08/17 04:31:08;;;;;;;3.00;2.37;;;24.20;72.50;;;;;;4980768;28;20581;-78
2022/08/17 04:33:33;;;;;;;2.33;2.00;;;24.20;72.50;;;;;;5014653;28;20576;-78
2022/08/17 04:36:01;;;;;;;3.20;1.90;;;24.20;72.60;;;;;;5014029;28;20624;-78
2022/08/17 04:38:30;;;;;;;2.60;2.40;;;24.30;72.70;;;;;;5014557;28;20257;-78
2022/08/17 04:43:44;;;;;;;4.03;2.43;;;24.30;72.80;;;;;;5014422;28;20894;-78
2022/08/17 04:46:15;;;;;;;4.80;3.07;;;24.30;72.60;;;;;;4996585;28;20623;-78
2022/08/17 04:48:44;;;;;;;3.83;3.10;;;24.30;72.80;;;;;;5014365;28;20679;-78
2022/08/17 04:51:24;;;;;;;5.43;2.93;;;24.30;72.80;;;;;;5014186;28;20575;-77
2022/08/17 04:53:54;;;;;;;3.47;2.97;;;24.30;72.80;;;;;;5015022;28;20588;-77
2022/08/17 04:56:20;;;;;;;4.53;2.77;;;24.30;72.90;;;;;;4996065;28;20640;-78
2022/08/17 04:58:49;;;;;;;4.50;2.40;;;24.30;72.80;;;;;;4997072;28;20561;-77
2022/08/17 05:01:16;;;;;;;3.40;2.20;;;24.30;72.80;;;;;;5014442;28;20919;-78
2022/08/17 05:03:42;;;;;;;4.57;1.80;;;24.30;72.90;;;;;;5019329;28;20605;-77
2022/08/17 05:06:08;;;;;;;2.80;1.90;;;24.30;73.00;;;;;;5013669;28;20629;-77
2022/08/17 05:08:35;;;;;;;2.67;2.27;;;24.30;73.00;;;;;;5013961;28;20566;-78
2022/08/17 05:11:00;;;;;;;3.00;2.53;;;24.40;73.10;;;;;;5013846;28;20665;-77
2022/08/17 05:13:31;;;;;;;5.10;2.10;;;24.40;73.10;;;;;;5013388;28;20682;-77
2022/08/17 05:15:59;;;;;;;3.17;2.30;;;24.40;73.00;;;;;;4995771;28;20704;-77
2022/08/17 05:18:26;;;;;;;3.30;2.17;;;24.50;73.10;;;;;;4996262;28;20570;-77
2022/08/17 05:20:53;;;;;;;2.97;2.20;;;24.50;72.90;;;;;;5013837;28;20561;-77
2022/08/17 05:23:20;;;;;;;7.20;2.70;;;24.50;72.90;;;;;;5013586;28;20569;-77
2022/08/17 05:25:49;;;;;;;4.27;2.20;;;24.60;72.90;;;;;;5012053;28;21209;-78
2022/08/17 05:28:18;;;;;;;3.97;2.10;;;24.60;72.70;;;;;;4988764;28;20581;-77
2022/08/17 05:30:45;;;;;;;3.07;2.33;;;24.60;72.60;;;;;;5013581;28;20577;-79
2022/08/17 05:33:20;;;;;;;4.30;2.40;;;24.60;72.50;;;;;;5013622;28;20580;-79
2022/08/17 05:35:49;;;;;;;3.57;2.40;;;24.60;72.50;;;;;;5013071;28;20739;-79
2022/08/17 05:38:20;;;;;;;4.03;2.20;;;24.60;72.50;;;;;;5013840;28;20566;-80
2022/08/17 05:40:46;;;;;;;4.10;2.07;;;24.60;72.60;;;;;;5017648;28;20581;-79
2022/08/17 05:43:19;;;;;;;6.30;2.37;;;24.60;72.50;;;;;;5013440;28;20894;-80
2022/08/17 05:45:48;;;;;;;2.80;2.50;;;24.70;72.60;;;;;;5012764;28;20597;-81
2022/08/17 05:48:14;;;;;;;5.00;2.47;;;24.70;72.60;;;;;;5013298;28;20570;-80
2022/08/17 05:51:01;;;;;;;4.60;2.20;;;24.70;72.50;;;;;;5013525;28;20565;-80
2022/08/17 05:53:47;;;;;;;6.40;2.33;;;24.70;72.60;;;;;;5013318;28;20566;-80
2022/08/17 05:56:36;;;;;;;4.43;2.33;;;24.70;72.60;;;;;;4995017;28;20645;-79
2022/08/17 05:59:12;;;;;;;5.90;2.83;;;24.80;72.80;;;;;;5013054;28;20572;-80
2022/08/17 06:01:47;;;;;;;3.67;2.40;;;24.80;72.70;;;;;;4986799;28;21087;-80
2022/08/17 06:04:54;;;;;;;2.87;2.37;;;24.90;73.10;;;;;;4987940;28;20593;-81
2022/08/17 06:07:41;;;;;;;2.90;1.90;;;25.00;73.00;;;;;;4993604;28;20713;-82
2022/08/17 06:10:30;;;;;;;2.80;2.30;;;25.10;72.90;;;;;;4993752;28;20571;-82
2022/08/17 06:13:05;;;;;;;5.07;2.77;;;25.20;72.90;;;;;;4993849;28;20571;-83
2022/08/17 06:15:45;;;;;;;2.67;2.20;;;25.30;72.90;;;;;;4997705;28;20641;-83
2022/08/17 06:18:11;;;;;;;4.50;2.70;;;25.30;73.00;;;;;;4976197;28;20562;-83
2022/08/17 06:20:47;;;;;;;3.53;2.13;;;25.40;72.90;;;;;;4994156;28;20690;-83
2022/08/17 06:23:22;;;;;;;6.17;2.53;;;25.40;72.90;;;;;;4993898;28;20601;-84
2022/08/17 06:25:54;;;;;;;2.50;2.10;;;25.50;73.10;;;;;;4977686;28;20611;-85
2022/08/17 06:28:46;;;;;;;2.37;1.90;;;25.50;73.10;;;;;;4997914;28;20571;-83
2022/08/17 06:31:27;;;;;;;2.83;2.00;;;25.60;73.20;;;;;;5007145;28;20563;-83
2022/08/17 06:33:56;;;;;;;6.20;2.50;;;25.70;73.40;;;;;;5003123;28;20578;-83
2022/08/17 06:37:00;;;;;;;5.53;2.50;;;25.80;73.40;;;;;;4992254;28;21212;-83
2022/08/17 06:39:47;;;;;;;5.20;2.70;;;25.90;73.40;;;;;;4992198;28;20590;-81
2022/08/17 06:42:46;;;;;;;5.43;2.97;;;26.00;73.40;;;;;;4983209;28;20585;-81
2022/08/17 06:45:33;;;;;;;3.73;2.60;;;26.20;73.60;;;;;;4983940;28;20625;-82
2022/08/17 06:48:04;;;;;;;3.77;2.67;;;26.40;73.90;;;;;;5002548;28;20581;-81
2022/08/17 06:50:34;;;;;;;3.87;2.97;;;26.70;74.30;;;;;;4994937;28;20571;-83
2022/08/17 06:53:20;;;;;;;3.63;2.67;;;27.10;74.70;;;;;;5013023;28;20624;-82
2022/08/17 06:55:50;;;;;;;3.83;2.80;;;27.40;73.50;;;;;;5011335;28;20657;-82
2022/08/17 06:58:21;;;;;;;3.70;3.07;;;27.60;73.00;;;;;;5012049;28;20600;-83
2022/08/17 07:00:49;;;;;;;5.77;2.73;;;27.70;72.20;;;;;;5012029;28;20793;-83
2022/08/17 07:03:45;;;;;;;7.67;2.57;;;27.70;71.50;;;;;;4994330;28;20596;-83
2022/08/17 07:06:18;;;;;;;3.43;2.10;;;27.80;71.20;;;;;;5011514;28;20676;-83
2022/08/17 07:08:50;;;;;;;5.40;2.70;;;27.80;70.60;;;;;;4962406;28;21009;-83
2022/08/17 07:11:21;;;;;;;7.70;3.80;;;27.90;70.50;;;;;;4994329;28;20561;-83
2022/08/17 07:14:09;;;;;;;3.10;2.40;;;27.80;70.20;;;;;;5011894;28;20573;-83
2022/08/17 07:16:45;;;;;;;2.70;2.43;;;27.80;70.00;;;;;;5010792;28;21052;-82
2022/08/17 07:19:15;;;;;;;4.07;2.47;;;27.90;69.80;;;;;;4996765;28;20585;-81
2022/08/17 07:21:53;;;;;;;5.10;3.00;;;27.90;70.00;;;;;;4992033;28;20586;-82
2022/08/17 07:24:32;;;;;;;6.57;3.20;;;28.10;70.10;;;;;;4992400;28;20576;-83
2022/08/17 07:27:12;;;;;;;6.23;3.60;;;28.20;69.90;;;;;;4992572;28;20566;-84
2022/08/17 07:29:55;;;;;;;6.73;3.40;;;28.30;69.50;;;;;;4996814;28;20582;-84
2022/08/17 07:32:26;;;;;;;3.57;3.27;;;28.50;69.20;;;;;;4992439;28;20648;-83
2022/08/17 07:35:03;;;;;;;3.70;2.80;;;28.60;68.80;;;;;;4990718;28;21013;-83
2022/08/17 07:37:33;;;;;;;3.17;2.43;;;28.70;68.70;;;;;;5002729;28;21059;-84
2022/08/17 07:40:12;;;;;;;5.47;3.03;;;28.80;68.50;;;;;;5000329;28;21095;-84
2022/08/17 07:42:38;;;;;;;6.00;4.00;;;28.80;68.20;;;;;;5001080;28;20562;-84
2022/08/17 07:48:17;;;;;;;6.10;4.43;;;28.90;67.90;;;;;;4986059;28;20602;-83
2022/08/17 07:50:35;;;;;;;5.00;4.57;;;28.90;67.20;;;;;;5018634;28;20581;-83
2022/08/17 07:53:23;;;;;;;4.20;3.80;;;28.90;67.00;;;;;;5018880;28;20670;-83
2022/08/17 07:55:50;;;;;;;11.50;4.40;;;28.90;66.90;;;;;;5009956;28;20218;-81
2022/08/17 07:58:20;;;;;;;6.10;5.00;;;28.90;66.80;;;;;;4996552;28;20628;-82
2022/08/17 08:01:06;;;;;;;5.60;5.10;;;28.90;66.70;;;;;;4998803;28;20578;-82
2022/08/17 08:03:32;;;;;;;5.90;4.73;;;28.80;66.50;;;;;;4996719;28;20613;-82
2022/08/17 08:06:01;;;;;;;5.30;4.80;;;28.80;66.50;;;;;;5002353;28;20610;-82
2022/08/17 08:08:41;;;;;;;6.97;3.60;;;28.80;66.70;;;;;;4996846;28;20576;-81
2022/08/17 08:11:11;;;;;;;5.60;4.47;;;28.70;66.80;;;;;;4997204;28;20566;-82
2022/08/17 08:13:41;;;;;;;5.07;4.37;;;28.60;66.80;;;;;;5011381;28;20572;-82
2022/08/17 08:16:16;;;;;;;5.33;4.73;;;28.60;67.10;;;;;;4996346;28;20658;-82
2022/08/17 08:18:46;;;;;;;7.70;5.00;;;28.50;67.30;;;;;;4996581;28;21007;-81
2022/08/17 08:21:36;;;;;;;4.77;4.17;;;28.40;67.30;;;;;;4997841;28;20569;-82
2022/08/17 08:24:25;;;;;;;6.60;5.07;;;28.30;67.70;;;;;;4980732;28;20569;-82
2022/08/17 08:26:59;;;;;;;5.43;4.93;;;28.20;67.80;;;;;;4996217;28;20602;-83
2022/08/17 08:29:48;;;;;;;5.80;4.77;;;28.10;67.90;;;;;;4996758;28;20564;-82
2022/08/17 08:32:43;;;;;;;5.90;5.33;;;28.00;68.10;;;;;;4967425;28;20582;-83
2022/08/17 08:35:20;;;;;;;6.17;5.13;;;27.90;68.40;;;;;;4995839;28;20768;-82
2022/08/17 08:38:06;;;;;;;6.40;4.67;;;27.80;68.60;;;;;;4962953;28;20600;-82
2022/08/17 08:40:43;;;;;;;5.33;4.83;;;27.70;68.90;;;;;;4993089;28;20573;-84
2022/08/17 08:43:27;;;;;;;10.23;4.97;;;27.60;69.40;;;;;;4985500;28;21216;-83
2022/08/17 08:45:57;;;;;;;5.53;5.03;;;27.50;69.60;;;;;;5002589;28;20633;-82
2022/08/17 08:48:32;;;;;;;6.80;5.37;;;27.50;70.00;;;;;;4996364;28;20603;-81
2022/08/17 08:51:37;;;;;;;6.47;5.87;;;27.40;70.10;;;;;;5004626;28;20582;-82
2022/08/17 08:54:15;;;;;;;6.37;5.77;;;27.30;70.40;;;;;;4989968;28;20597;-84
2022/08/17 08:57:23;;;;;;;6.97;6.37;;;27.20;70.40;;;;;;5011187;28;20641;-82
2022/08/17 09:00:02;;;;;;;15.77;9.80;;;27.20;70.70;;;;;;4995660;28;20670;-83
2022/08/17 09:03:02;;;;;;;8.53;7.73;;;27.10;70.70;;;;;;4998094;28;20566;-82
2022/08/17 09:05:52;;;;;;;9.40;8.50;;;27.00;70.80;;;;;;4995150;28;20606;-82
2022/08/17 09:08:24;;;;;;;9.10;7.23;;;27.00;71.00;;;;;;4995143;28;20594;-82
2022/08/17 09:10:55;;;;;;;8.20;7.43;;;27.00;71.20;;;;;;4995026;28;20563;-81
2022/08/17 09:13:34;;;;;;;7.20;6.60;;;26.90;71.40;;;;;;4995563;28;20975;-82
2022/08/17 09:16:07;;;;;;;7.27;6.60;;;26.90;71.40;;;;;;4994615;28;20649;-82
2022/08/17 09:18:47;;;;;;;8.23;7.10;;;26.90;71.80;;;;;;4994726;28;20920;-83
2022/08/17 09:21:31;;;;;;;8.33;7.50;;;26.90;71.90;;;;;;4994410;28;20577;-84
2022/08/17 09:24:30;;;;;;;11.13;9.73;;;26.90;72.00;;;;;;4994026;28;20656;-82
2022/08/17 09:27:22;;;;;;;9.50;8.60;;;26.80;72.80;;;;;;4998720;28;21221;-82
2022/08/17 09:29:52;;;;;;;9.10;8.27;;;26.80;73.20;;;;;;4994197;28;21000;-82
2022/08/17 09:32:27;;;;;;;8.27;7.43;;;26.80;73.00;;;;;;4994154;28;20566;-81
2022/08/17 09:34:59;;;;;;;8.20;7.40;;;26.80;73.10;;;;;;4992471;28;21027;-84
2022/08/17 09:37:45;;;;;;;8.37;7.00;;;26.80;73.30;;;;;;4994122;28;21101;-82
2022/08/17 09:40:29;;;;;;;9.50;7.70;;;26.80;73.40;;;;;;4994794;28;20605;-83
2022/08/17 09:43:04;;;;;;;9.50;8.60;;;26.70;73.50;;;;;;5000350;28;20606;-83
2022/08/17 09:45:38;;;;;;;7.97;7.17;;;26.70;73.80;;;;;;5000419;28;20605;-84
2022/08/17 09:48:16;;;;;;;9.83;8.93;;;26.70;73.70;;;;;;5000455;28;20911;-83
2022/08/17 09:51:13;;;;;;;8.87;8.07;;;26.60;74.00;;;;;;4999102;28;20570;-82
2022/08/17 09:53:40;;;;;;;8.00;7.20;;;26.60;74.30;;;;;;5003770;28;20600;-83
2022/08/17 09:56:12;;;;;;;8.63;7.73;;;26.60;74.00;;;;;;4994517;28;20726;-82
2022/08/17 09:58:56;;;;;;;8.10;7.20;;;26.50;74.30;;;;;;4993874;28;20581;-82
2022/08/17 10:01:35;;;;;;;9.67;8.67;;;26.50;74.90;;;;;;4994674;28;20946;-82
2022/08/17 10:04:12;;;;;;;15.70;9.80;;;26.40;75.00;;;;;;4994037;28;20577;-82
2022/08/17 10:06:59;;;;;;;8.40;7.60;;;26.40;75.20;;;;;;4997543;28;21206;-82
2022/08/17 10:10:10;;;;;;;11.60;8.63;;;26.30;75.20;;;;;;4994215;28;20967;-81
2022/08/17 10:13:10;;;;;;;8.67;7.70;;;26.30;75.80;;;;;;4981455;28;21064;-82
2022/08/17 10:15:56;;;;;;;9.10;7.50;;;26.20;76.00;;;;;;4986767;28;20654;-84
2022/08/17 10:18:34;;;;;;;8.27;7.57;;;26.20;76.50;;;;;;4997836;28;20617;-83
2022/08/17 10:27:16;;;;;;;11.03;10.03;;;26.30;78.20;;;;;;5030972;28;20568;-75
2022/08/17 10:29:49;;;;;;;10.60;9.70;;;26.50;78.80;;;;;;5048669;28;20621;-75
2022/08/17 10:32:31;;;;;;;10.43;9.43;;;26.60;79.20;;;;;;5048716;28;20574;-75
2022/08/17 10:35:24;;;;;;;9.97;9.17;;;26.80;79.40;;;;;;5047800;28;20629;-76
2022/08/17 10:38:02;;;;;;;9.77;8.77;;;27.00;79.20;;;;;;5048718;28;20594;-75
2022/08/17 10:40:48;;;;;;;10.20;9.30;;;27.10;79.10;;;;;;5064286;28;20646;-76
2022/08/17 10:43:21;;;;;;;9.00;8.30;;;27.30;78.70;;;;;;5045529;28;20579;-76
2022/08/17 10:45:56;;;;;;;7.87;7.17;;;27.40;78.50;;;;;;5047937;28;20591;-76
2022/08/17 10:48:33;;;;;;;8.67;7.93;;;27.50;78.40;;;;;;5048453;28;20559;-76
2022/08/17 10:51:06;;;;;;;9.20;8.30;;;27.60;78.40;;;;;;5048337;28;20579;-76
2022/08/17 10:53:39;;;;;;;8.50;7.70;;;27.80;78.50;;;;;;5047019;28;20571;-76
2022/08/17 10:56:11;;;;;;;9.63;8.63;;;27.90;78.60;;;;;;5046510;28;21174;-76
2022/08/17 10:58:44;;;;;;;13.83;10.57;;;28.20;79.10;;;;;;5048230;28;20664;-76
2022/08/17 11:01:11;;;;;;;9.97;9.07;;;28.50;79.10;;;;;;5046981;28;20589;-76
2022/08/17 11:03:52;;;;;;;10.40;9.40;;;28.90;79.60;;;;;;5047960;28;20570;-76
2022/08/17 11:06:52;;;;;;;8.70;7.90;;;29.30;80.10;;;;;;5036455;28;20615;-76
2022/08/17 11:09:55;;;;;;;9.17;8.47;;;29.90;79.80;;;;;;5040970;28;20568;-76
2022/08/17 11:12:42;;;;;;;7.37;6.77;;;30.50;77.80;;;;;;5028118;28;20621;-76
2022/08/17 11:15:36;;;;;;;8.43;6.93;;;31.20;78.00;;;;;;5009799;28;20600;-76
2022/08/17 11:18:24;;;;;;;7.10;6.60;;;31.80;76.00;;;;;;5028013;28;20562;-76
2022/08/17 11:21:02;;;;;;;7.60;7.00;;;32.40;74.60;;;;;;5026593;28;20989;-76
2022/08/17 11:23:31;;;;;;;8.70;7.93;;;32.70;72.80;;;;;;5026593;28;20823;-76
2022/08/17 11:26:06;;;;;;;8.73;7.93;;;33.00;70.40;;;;;;5027483;28;20954;-76
2022/08/17 11:28:44;;;;;;;8.53;7.83;;;33.10;68.90;;;;;;5027824;28;20589;-76
2022/08/17 11:31:42;;;;;;;9.90;9.20;;;33.20;67.30;;;;;;5021794;28;20909;-76
2022/08/17 11:34:29;;;;;;;11.40;8.60;;;33.20;65.60;;;;;;5014325;28;20928;-77
2022/08/17 11:37:10;;;;;;;9.70;8.87;;;33.10;65.60;;;;;;5029453;28;20679;-76
2022/08/17 11:40:13;;;;;;;9.80;9.00;;;33.10;64.50;;;;;;5014210;28;21164;-76
2022/08/17 11:43:22;;;;;;;7.77;7.17;;;33.00;64.00;;;;;;5031091;28;20578;-76
2022/08/17 11:46:13;;;;;;;9.30;8.50;;;32.90;63.40;;;;;;5025857;28;20595;-76
2022/08/17 11:52:08;;;;;;;9.17;8.47;;;32.60;62.90;;;;;;5049578;28;20568;-76
2022/08/17 11:54:46;;;;;;;9.97;9.17;;;32.50;62.70;;;;;;5033410;28;20607;-77
2022/08/17 11:57:29;;;;;;;10.63;9.70;;;32.40;62.90;;;;;;5034140;28;20564;-76
2022/08/17 12:00:28;;;;;;;11.83;10.83;;;32.30;62.60;;;;;;5032587;28;20632;-77
2022/08/17 12:03:25;;;;;;;10.07;9.37;;;32.30;63.10;;;;;;5030070;28;20672;-75
2022/08/17 12:06:00;;;;;;;10.63;9.70;;;32.30;63.20;;;;;;5032704;28;20678;-76
2022/08/17 12:08:29;;;;;;;10.20;9.17;;;32.50;64.70;;;;;;5033230;28;21145;-78
2022/08/17 12:11:00;;;;;;;11.00;10.00;;;32.80;65.70;;;;;;5048921;28;20610;-77
2022/08/17 12:13:28;;;;;;;11.30;10.30;;;33.00;65.50;;;;;;5032261;28;20567;-77
2022/08/17 12:15:56;;;;;;;12.00;11.10;;;33.30;65.20;;;;;;5031841;28;20609;-77
2022/08/17 12:18:34;;;;;;;12.60;11.50;;;33.60;63.60;;;;;;5032827;28;20573;-78
2022/08/17 12:21:24;;;;;;;13.50;12.40;;;33.60;61.80;;;;;;5032093;28;20653;-77
2022/08/17 12:24:13;;;;;;;11.53;10.53;;;33.80;61.80;;;;;;5033535;28;20563;-78
2022/08/17 12:26:42;;;;;;;10.73;9.73;;;33.90;61.50;;;;;;5033116;28;20601;-77
2022/08/17 12:29:15;;;;;;;10.80;9.70;;;34.00;60.10;;;;;;5048802;28;20703;-77
2022/08/17 12:31:50;;;;;;;10.10;9.27;;;33.90;59.40;;;;;;5048554;28;21116;-77
2022/08/17 12:34:25;;;;;;;9.33;8.63;;;33.80;59.00;;;;;;5015421;28;20938;-77
2022/08/17 12:36:58;;;;;;;8.93;8.23;;;33.80;59.20;;;;;;5032651;28;20569;-77
2022/08/17 12:39:26;;;;;;;10.77;9.77;;;33.80;59.50;;;;;;5033096;28;20628;-78
2022/08/17 12:41:55;;;;;;;9.77;8.97;;;33.80;59.50;;;;;;5033013;28;20621;-78
2022/08/17 12:44:26;;;;;;;9.57;8.53;;;33.80;59.40;;;;;;5032524;28;20550;-78
2022/08/17 12:46:54;;;;;;;11.30;10.40;;;33.80;58.70;;;;;;5033137;28;20572;-77
2022/08/17 12:49:35;;;;;;;11.60;10.60;;;33.70;58.30;;;;;;5033120;28;20570;-77
2022/08/17 12:52:09;;;;;;;11.50;10.57;;;33.60;57.90;;;;;;5033498;28;20571;-77
2022/08/17 12:55:17;;;;;;;10.83;9.80;;;33.50;57.80;;;;;;5048284;28;20600;-77
2022/08/17 12:57:58;;;;;;;11.00;10.10;;;33.30;57.30;;;;;;5032641;28;21082;-78
2022/08/17 13:00:33;;;;;;;12.00;10.87;;;33.10;57.10;;;;;;5032679;28;20641;-77
2022/08/17 13:03:07;;;;;;;12.17;11.07;;;32.90;57.30;;;;;;5032929;28;20983;-78
2022/08/17 13:05:53;;;;;;;11.87;10.97;;;32.70;57.60;;;;;;5032521;28;20956;-76
2022/08/17 13:08:37;;;;;;;11.40;10.20;;;32.50;57.60;;;;;;5032580;28;20580;-77
2022/08/17 13:11:08;;;;;;;10.27;9.33;;;32.40;57.50;;;;;;5031288;28;20567;-77
2022/08/17 13:13:38;;;;;;;9.93;8.67;;;32.10;57.60;;;;;;5032592;28;20576;-76
2022/08/17 13:16:13;;;;;;;9.10;8.30;;;31.90;57.90;;;;;;5031934;28;20672;-77
2022/08/17 13:18:53;;;;;;;9.20;8.40;;;31.70;57.90;;;;;;5032131;28;20586;-76
2022/08/17 13:21:20;;;;;;;9.93;9.13;;;31.50;58.20;;;;;;5047785;28;20590;-76
2022/08/17 13:24:20;;;;;;;9.77;8.07;;;31.30;58.40;;;;;;5030854;28;20604;-76
2022/08/17 13:27:06;;;;;;;10.80;9.20;;;31.10;58.80;;;;;;5019322;28;20604;-76
2022/08/17 13:29:47;;;;;;;8.60;7.90;;;31.00;59.20;;;;;;5030908;28;20933;-77
2022/08/17 13:32:13;;;;;;;8.13;7.53;;;30.90;59.20;;;;;;5032122;28;20587;-76
2022/08/17 13:34:55;;;;;;;8.43;7.73;;;30.80;59.30;;;;;;5031573;28;20545;-77
2022/08/17 13:37:33;;;;;;;11.23;10.33;;;30.70;59.80;;;;;;5047400;28;20609;-77
2022/08/17 13:39:59;;;;;;;12.83;11.17;;;30.70;59.80;;;;;;5030679;28;20668;-76
2022/08/17 13:42:39;;;;;;;9.97;9.17;;;30.50;59.90;;;;;;5032091;28;21011;-77
2022/08/17 13:45:27;;;;;;;9.60;8.90;;;30.40;61.20;;;;;;5046864;28;20186;-76
2022/08/17 13:48:08;;;;;;;9.87;9.07;;;30.30;60.70;;;;;;5047186;28;20560;-77